sensor_id;sensor_type;location;lat;lon;timestamp;pressure;altitude;pressure_sealevel;temperature
25514;BMP180;48128;54.242;10.280;2023-04-15T00:01:00;100612.00;;;6.70
25514;BMP180;48128;54.242;10.280;2023-04-15T00:03:27;100599.00;;;6.70
25514;BMP180;48128;54.242;10.280;2023-04-15T00:05:56;100601.00;;;6.70
25514;BMP180;48128;54.242;10.280;2023-04-15T00:08:23;100587.00;;;6.70
25514;BMP180;48128;54.242;10.280;2023-04-15T00:10:51;100589.00;;;6.70
25514;BMP180;48128;54.242;10.280;2023-04-15T00:13:18;100583.00;;;6.70
25514;BMP180;48128;54.242;10.280;2023-04-15T00:15:45;100582.00;;;6.70
25514;BMP180;48128;54.242;10.280;2023-04-15T00:18:13;100576.00;;;6.70
25514;BMP180;48128;54.242;10.280;2023-04-15T00:20:40;100583.00;;;6.80
25514;BMP180;48128;54.242;10.280;2023-04-15T00:23:07;100578.00;;;6.70
25514;BMP180;48128;54.242;10.280;2023-04-15T00:25:34;100580.00;;;6.70
25514;BMP180;48128;54.242;10.280;2023-04-15T00:28:01;100587.00;;;6.80
25514;BMP180;48128;54.242;10.280;2023-04-15T00:30:28;100575.00;;;6.80
25514;BMP180;48128;54.242;10.280;2023-04-15T00:32:55;100573.00;;;6.80
25514;BMP180;48128;54.242;10.280;2023-04-15T00:35:22;100574.00;;;6.80
25514;BMP180;48128;54.242;10.280;2023-04-15T00:37:49;100577.00;;;6.80
25514;BMP180;48128;54.242;10.280;2023-04-15T00:40:18;100579.00;;;6.80
25514;BMP180;48128;54.242;10.280;2023-04-15T00:42:50;100576.00;;;6.80
25514;BMP180;48128;54.242;10.280;2023-04-15T00:45:17;100572.00;;;6.80
25514;BMP180;48128;54.242;10.280;2023-04-15T00:47:44;100558.00;;;6.80
25514;BMP180;48128;54.242;10.280;2023-04-15T00:50:13;100562.00;;;6.80
25514;BMP180;48128;54.242;10.280;2023-04-15T00:52:40;100561.00;;;6.80
25514;BMP180;48128;54.242;10.280;2023-04-15T00:55:07;100558.00;;;6.80
25514;BMP180;48128;54.242;10.280;2023-04-15T00:57:34;100557.00;;;6.80
25514;BMP180;48128;54.242;10.280;2023-04-15T01:00:02;100563.00;;;6.90
25514;BMP180;48128;54.242;10.280;2023-04-15T01:02:30;100570.00;;;6.90
25514;BMP180;48128;54.242;10.280;2023-04-15T01:04:57;100562.00;;;6.90
25514;BMP180;48128;54.242;10.280;2023-04-15T01:07:24;100570.00;;;6.90
25514;BMP180;48128;54.242;10.280;2023-04-15T01:09:51;100561.00;;;6.90
25514;BMP180;48128;54.242;10.280;2023-04-15T01:12:18;100553.00;;;6.90
25514;BMP180;48128;54.242;10.280;2023-04-15T01:14:46;100546.00;;;6.90
25514;BMP180;48128;54.242;10.280;2023-04-15T01:17:13;100557.00;;;6.90
25514;BMP180;48128;54.242;10.280;2023-04-15T01:19:40;100568.00;;;6.90
25514;BMP180;48128;54.242;10.280;2023-04-15T01:22:07;100565.00;;;6.90
25514;BMP180;48128;54.242;10.280;2023-04-15T01:24:34;100571.00;;;6.90
25514;BMP180;48128;54.242;10.280;2023-04-15T01:27:03;100565.00;;;6.90
25514;BMP180;48128;54.242;10.280;2023-04-15T01:29:31;100573.00;;;6.90
25514;BMP180;48128;54.242;10.280;2023-04-15T01:31:58;100561.00;;;7.00
25514;BMP180;48128;54.242;10.280;2023-04-15T01:34:25;100569.00;;;7.00
25514;BMP180;48128;54.242;10.280;2023-04-15T01:36:52;100562.00;;;7.00
25514;BMP180;48128;54.242;10.280;2023-04-15T01:39:19;100563.00;;;7.00
25514;BMP180;48128;54.242;10.280;2023-04-15T01:41:46;100562.00;;;7.00
25514;BMP180;48128;54.242;10.280;2023-04-15T01:44:13;100554.00;;;7.00
25514;BMP180;48128;54.242;10.280;2023-04-15T01:46:40;100557.00;;;7.00
25514;BMP180;48128;54.242;10.280;2023-04-15T01:49:07;100557.00;;;7.10
25514;BMP180;48128;54.242;10.280;2023-04-15T01:51:34;100567.00;;;7.10
25514;BMP180;48128;54.242;10.280;2023-04-15T01:54:00;100559.00;;;7.10
25514;BMP180;48128;54.242;10.280;2023-04-15T01:56:27;100567.00;;;7.10
25514;BMP180;48128;54.242;10.280;2023-04-15T01:58:54;100554.00;;;7.10
25514;BMP180;48128;54.242;10.280;2023-04-15T02:01:21;100556.00;;;7.10
25514;BMP180;48128;54.242;10.280;2023-04-15T02:03:48;100554.00;;;7.10
25514;BMP180;48128;54.242;10.280;2023-04-15T02:06:15;100543.00;;;7.10
25514;BMP180;48128;54.242;10.280;2023-04-15T02:08:42;100545.00;;;7.10
25514;BMP180;48128;54.242;10.280;2023-04-15T02:11:08;100540.00;;;7.10
25514;BMP180;48128;54.242;10.280;2023-04-15T02:13:35;100540.00;;;7.10
25514;BMP180;48128;54.242;10.280;2023-04-15T02:16:02;100543.00;;;7.10
25514;BMP180;48128;54.242;10.280;2023-04-15T02:18:29;100535.00;;;7.10
25514;BMP180;48128;54.242;10.280;2023-04-15T02:20:56;100535.00;;;7.20
25514;BMP180;48128;54.242;10.280;2023-04-15T02:23:24;100547.00;;;7.20
25514;BMP180;48128;54.242;10.280;2023-04-15T02:25:51;100543.00;;;7.20
25514;BMP180;48128;54.242;10.280;2023-04-15T02:28:20;100538.00;;;7.20
25514;BMP180;48128;54.242;10.280;2023-04-15T02:30:50;100530.00;;;7.20
25514;BMP180;48128;54.242;10.280;2023-04-15T02:33:20;100540.00;;;7.20
25514;BMP180;48128;54.242;10.280;2023-04-15T02:35:47;100535.00;;;7.20
25514;BMP180;48128;54.242;10.280;2023-04-15T02:38:14;100536.00;;;7.20
25514;BMP180;48128;54.242;10.280;2023-04-15T02:40:43;100529.00;;;7.20
25514;BMP180;48128;54.242;10.280;2023-04-15T02:43:10;100539.00;;;7.20
25514;BMP180;48128;54.242;10.280;2023-04-15T02:45:37;100528.00;;;7.20
25514;BMP180;48128;54.242;10.280;2023-04-15T02:48:04;100535.00;;;7.20
25514;BMP180;48128;54.242;10.280;2023-04-15T02:50:32;100540.00;;;7.20
25514;BMP180;48128;54.242;10.280;2023-04-15T02:52:59;100531.00;;;7.20
25514;BMP180;48128;54.242;10.280;2023-04-15T02:55:27;100525.00;;;7.20
25514;BMP180;48128;54.242;10.280;2023-04-15T02:57:54;100534.00;;;7.20
25514;BMP180;48128;54.242;10.280;2023-04-15T03:00:22;100550.00;;;7.20
25514;BMP180;48128;54.242;10.280;2023-04-15T03:02:51;100541.00;;;7.20
25514;BMP180;48128;54.242;10.280;2023-04-15T03:05:22;100534.00;;;7.20
25514;BMP180;48128;54.242;10.280;2023-04-15T03:07:51;100527.00;;;7.20
25514;BMP180;48128;54.242;10.280;2023-04-15T03:10:18;100525.00;;;7.20
25514;BMP180;48128;54.242;10.280;2023-04-15T03:12:45;100520.00;;;7.20
25514;BMP180;48128;54.242;10.280;2023-04-15T03:15:12;100525.00;;;7.20
25514;BMP180;48128;54.242;10.280;2023-04-15T03:17:39;100528.00;;;7.20
25514;BMP180;48128;54.242;10.280;2023-04-15T03:20:06;100515.00;;;7.20
25514;BMP180;48128;54.242;10.280;2023-04-15T03:22:34;100508.00;;;7.20
25514;BMP180;48128;54.242;10.280;2023-04-15T03:25:01;100514.00;;;7.20
25514;BMP180;48128;54.242;10.280;2023-04-15T03:27:28;100515.00;;;7.20
25514;BMP180;48128;54.242;10.280;2023-04-15T03:29:54;100524.00;;;7.20
25514;BMP180;48128;54.242;10.280;2023-04-15T03:32:22;100506.00;;;7.20
25514;BMP180;48128;54.242;10.280;2023-04-15T03:34:49;100515.00;;;7.20
25514;BMP180;48128;54.242;10.280;2023-04-15T03:37:16;100504.00;;;7.20
25514;BMP180;48128;54.242;10.280;2023-04-15T03:39:43;100503.00;;;7.20
25514;BMP180;48128;54.242;10.280;2023-04-15T03:42:09;100501.00;;;7.20
25514;BMP180;48128;54.242;10.280;2023-04-15T03:44:36;100504.00;;;7.20
25514;BMP180;48128;54.242;10.280;2023-04-15T03:47:03;100508.00;;;7.20
25514;BMP180;48128;54.242;10.280;2023-04-15T03:49:30;100504.00;;;7.20
25514;BMP180;48128;54.242;10.280;2023-04-15T03:51:57;100503.00;;;7.20
25514;BMP180;48128;54.242;10.280;2023-04-15T03:54:25;100499.00;;;7.20
25514;BMP180;48128;54.242;10.280;2023-04-15T03:56:52;100501.00;;;7.20
25514;BMP180;48128;54.242;10.280;2023-04-15T03:59:19;100501.00;;;7.20
25514;BMP180;48128;54.242;10.280;2023-04-15T04:01:45;100511.00;;;7.30
25514;BMP180;48128;54.242;10.280;2023-04-15T04:04:12;100506.00;;;7.30
25514;BMP180;48128;54.242;10.280;2023-04-15T04:06:40;100515.00;;;7.30
25514;BMP180;48128;54.242;10.280;2023-04-15T04:09:06;100528.00;;;7.30
25514;BMP180;48128;54.242;10.280;2023-04-15T04:11:33;100514.00;;;7.30
25514;BMP180;48128;54.242;10.280;2023-04-15T04:14:00;100527.00;;;7.30
25514;BMP180;48128;54.242;10.280;2023-04-15T04:16:27;100516.00;;;7.30
25514;BMP180;48128;54.242;10.280;2023-04-15T04:18:54;100529.00;;;7.40
25514;BMP180;48128;54.242;10.280;2023-04-15T04:21:21;100528.00;;;7.40
25514;BMP180;48128;54.242;10.280;2023-04-15T04:23:48;100527.00;;;7.40
25514;BMP180;48128;54.242;10.280;2023-04-15T04:26:15;100516.00;;;7.40
25514;BMP180;48128;54.242;10.280;2023-04-15T04:28:42;100535.00;;;7.40
25514;BMP180;48128;54.242;10.280;2023-04-15T04:31:09;100523.00;;;7.40
25514;BMP180;48128;54.242;10.280;2023-04-15T04:33:35;100522.00;;;7.40
25514;BMP180;48128;54.242;10.280;2023-04-15T04:36:02;100525.00;;;7.40
25514;BMP180;48128;54.242;10.280;2023-04-15T04:38:29;100521.00;;;7.50
25514;BMP180;48128;54.242;10.280;2023-04-15T04:40:56;100522.00;;;7.50
25514;BMP180;48128;54.242;10.280;2023-04-15T04:43:23;100525.00;;;7.50
25514;BMP180;48128;54.242;10.280;2023-04-15T04:45:50;100520.00;;;7.50
25514;BMP180;48128;54.242;10.280;2023-04-15T04:48:17;100516.00;;;7.50
25514;BMP180;48128;54.242;10.280;2023-04-15T04:50:44;100517.00;;;7.50
25514;BMP180;48128;54.242;10.280;2023-04-15T04:53:12;100515.00;;;7.50
25514;BMP180;48128;54.242;10.280;2023-04-15T04:55:39;100507.00;;;7.50
25514;BMP180;48128;54.242;10.280;2023-04-15T04:58:06;100506.00;;;7.60
25514;BMP180;48128;54.242;10.280;2023-04-15T05:00:33;100510.00;;;7.60
25514;BMP180;48128;54.242;10.280;2023-04-15T05:03:00;100509.00;;;7.60
25514;BMP180;48128;54.242;10.280;2023-04-15T05:05:27;100493.00;;;7.60
25514;BMP180;48128;54.242;10.280;2023-04-15T05:07:54;100497.00;;;7.60
25514;BMP180;48128;54.242;10.280;2023-04-15T05:10:21;100505.00;;;7.60
25514;BMP180;48128;54.242;10.280;2023-04-15T05:12:48;100520.00;;;7.60
25514;BMP180;48128;54.242;10.280;2023-04-15T05:15:15;100527.00;;;7.60
25514;BMP180;48128;54.242;10.280;2023-04-15T05:17:41;100536.00;;;7.60
25514;BMP180;48128;54.242;10.280;2023-04-15T05:20:09;100537.00;;;7.60
25514;BMP180;48128;54.242;10.280;2023-04-15T05:22:36;100553.00;;;7.60
25514;BMP180;48128;54.242;10.280;2023-04-15T05:25:03;100557.00;;;7.60
25514;BMP180;48128;54.242;10.280;2023-04-15T05:27:30;100558.00;;;7.60
25514;BMP180;48128;54.242;10.280;2023-04-15T05:29:57;100547.00;;;7.60
25514;BMP180;48128;54.242;10.280;2023-04-15T05:32:24;100563.00;;;7.60
25514;BMP180;48128;54.242;10.280;2023-04-15T05:34:51;100568.00;;;7.60
25514;BMP180;48128;54.242;10.280;2023-04-15T05:37:18;100557.00;;;7.60
25514;BMP180;48128;54.242;10.280;2023-04-15T05:39:47;100552.00;;;7.60
25514;BMP180;48128;54.242;10.280;2023-04-15T05:42:14;100547.00;;;7.60
25514;BMP180;48128;54.242;10.280;2023-04-15T05:44:41;100545.00;;;7.60
25514;BMP180;48128;54.242;10.280;2023-04-15T05:47:08;100551.00;;;7.60
25514;BMP180;48128;54.242;10.280;2023-04-15T05:49:36;100545.00;;;7.70
25514;BMP180;48128;54.242;10.280;2023-04-15T05:52:03;100543.00;;;7.70
25514;BMP180;48128;54.242;10.280;2023-04-15T05:54:30;100543.00;;;7.70
25514;BMP180;48128;54.242;10.280;2023-04-15T05:56:57;100548.00;;;7.70
25514;BMP180;48128;54.242;10.280;2023-04-15T05:59:24;100540.00;;;7.70
25514;BMP180;48128;54.242;10.280;2023-04-15T06:01:51;100542.00;;;7.70
25514;BMP180;48128;54.242;10.280;2023-04-15T06:04:18;100552.00;;;7.70
25514;BMP180;48128;54.242;10.280;2023-04-15T06:06:45;100551.00;;;7.70
25514;BMP180;48128;54.242;10.280;2023-04-15T06:09:12;100569.00;;;7.70
25514;BMP180;48128;54.242;10.280;2023-04-15T06:11:39;100559.00;;;7.70
25514;BMP180;48128;54.242;10.280;2023-04-15T06:14:07;100564.00;;;7.70
25514;BMP180;48128;54.242;10.280;2023-04-15T06:16:34;100567.00;;;7.70
25514;BMP180;48128;54.242;10.280;2023-04-15T06:19:02;100566.00;;;7.70
25514;BMP180;48128;54.242;10.280;2023-04-15T06:21:29;100568.00;;;7.70
25514;BMP180;48128;54.242;10.280;2023-04-15T06:23:58;100577.00;;;7.70
25514;BMP180;48128;54.242;10.280;2023-04-15T06:26:25;100581.00;;;7.70
25514;BMP180;48128;54.242;10.280;2023-04-15T06:28:52;100588.00;;;7.70
25514;BMP180;48128;54.242;10.280;2023-04-15T06:31:19;100576.00;;;7.70
25514;BMP180;48128;54.242;10.280;2023-04-15T06:33:47;100581.00;;;7.70
25514;BMP180;48128;54.242;10.280;2023-04-15T06:36:13;100592.00;;;7.70
25514;BMP180;48128;54.242;10.280;2023-04-15T06:38:41;100588.00;;;7.70
25514;BMP180;48128;54.242;10.280;2023-04-15T06:41:07;100597.00;;;7.70
25514;BMP180;48128;54.242;10.280;2023-04-15T06:43:34;100590.00;;;7.70
25514;BMP180;48128;54.242;10.280;2023-04-15T06:46:01;100589.00;;;7.70
25514;BMP180;48128;54.242;10.280;2023-04-15T06:48:30;100595.00;;;7.80
25514;BMP180;48128;54.242;10.280;2023-04-15T06:50:57;100587.00;;;7.80
25514;BMP180;48128;54.242;10.280;2023-04-15T06:53:24;100603.00;;;7.90
25514;BMP180;48128;54.242;10.280;2023-04-15T06:55:53;100608.00;;;7.90
25514;BMP180;48128;54.242;10.280;2023-04-15T06:58:21;100616.00;;;7.90
25514;BMP180;48128;54.242;10.280;2023-04-15T07:00:48;100619.00;;;7.90
25514;BMP180;48128;54.242;10.280;2023-04-15T07:03:14;100618.00;;;7.90
25514;BMP180;48128;54.242;10.280;2023-04-15T07:05:41;100621.00;;;7.90
25514;BMP180;48128;54.242;10.280;2023-04-15T07:08:09;100625.00;;;7.90
25514;BMP180;48128;54.242;10.280;2023-04-15T07:10:36;100621.00;;;7.90
25514;BMP180;48128;54.242;10.280;2023-04-15T07:13:03;100620.00;;;8.00
25514;BMP180;48128;54.242;10.280;2023-04-15T07:15:29;100615.00;;;8.00
25514;BMP180;48128;54.242;10.280;2023-04-15T07:17:56;100616.00;;;8.00
25514;BMP180;48128;54.242;10.280;2023-04-15T07:20:23;100604.00;;;8.10
25514;BMP180;48128;54.242;10.280;2023-04-15T07:22:51;100622.00;;;8.10
25514;BMP180;48128;54.242;10.280;2023-04-15T07:25:18;100622.00;;;8.10
25514;BMP180;48128;54.242;10.280;2023-04-15T07:27:45;100619.00;;;8.10
25514;BMP180;48128;54.242;10.280;2023-04-15T07:30:13;100620.00;;;8.20
25514;BMP180;48128;54.242;10.280;2023-04-15T07:32:40;100626.00;;;8.20
25514;BMP180;48128;54.242;10.280;2023-04-15T07:35:08;100622.00;;;8.20
25514;BMP180;48128;54.242;10.280;2023-04-15T07:37:35;100627.00;;;8.30
25514;BMP180;48128;54.242;10.280;2023-04-15T07:40:02;100636.00;;;8.30
25514;BMP180;48128;54.242;10.280;2023-04-15T07:42:30;100634.00;;;8.30
25514;BMP180;48128;54.242;10.280;2023-04-15T07:44:57;100631.00;;;8.30
25514;BMP180;48128;54.242;10.280;2023-04-15T07:47:24;100640.00;;;8.30
25514;BMP180;48128;54.242;10.280;2023-04-15T07:49:51;100628.00;;;8.30
25514;BMP180;48128;54.242;10.280;2023-04-15T07:52:18;100637.00;;;8.40
25514;BMP180;48128;54.242;10.280;2023-04-15T07:54:45;100640.00;;;8.40
25514;BMP180;48128;54.242;10.280;2023-04-15T07:57:12;100631.00;;;8.40
25514;BMP180;48128;54.242;10.280;2023-04-15T07:59:39;100625.00;;;8.50
25514;BMP180;48128;54.242;10.280;2023-04-15T08:02:06;100644.00;;;8.50
25514;BMP180;48128;54.242;10.280;2023-04-15T08:04:34;100648.00;;;8.50
25514;BMP180;48128;54.242;10.280;2023-04-15T08:07:01;100647.00;;;8.50
25514;BMP180;48128;54.242;10.280;2023-04-15T08:09:31;100644.00;;;8.60
25514;BMP180;48128;54.242;10.280;2023-04-15T08:11:58;100659.00;;;8.60
25514;BMP180;48128;54.242;10.280;2023-04-15T08:14:24;100654.00;;;8.70
25514;BMP180;48128;54.242;10.280;2023-04-15T08:16:52;100666.00;;;8.70
25514;BMP180;48128;54.242;10.280;2023-04-15T08:19:19;100673.00;;;8.70
25514;BMP180;48128;54.242;10.280;2023-04-15T08:21:46;100677.00;;;8.70
25514;BMP180;48128;54.242;10.280;2023-04-15T08:24:13;100667.00;;;8.70
25514;BMP180;48128;54.242;10.280;2023-04-15T08:26:40;100673.00;;;8.70
25514;BMP180;48128;54.242;10.280;2023-04-15T08:29:07;100669.00;;;8.70
25514;BMP180;48128;54.242;10.280;2023-04-15T08:31:34;100668.00;;;8.70
25514;BMP180;48128;54.242;10.280;2023-04-15T08:34:01;100667.00;;;8.80
25514;BMP180;48128;54.242;10.280;2023-04-15T08:36:29;100672.00;;;8.80
25514;BMP180;48128;54.242;10.280;2023-04-15T08:38:56;100673.00;;;8.90
25514;BMP180;48128;54.242;10.280;2023-04-15T08:41:24;100677.00;;;9.00
25514;BMP180;48128;54.242;10.280;2023-04-15T08:43:56;100676.00;;;9.10
25514;BMP180;48128;54.242;10.280;2023-04-15T08:46:23;100677.00;;;9.20
25514;BMP180;48128;54.242;10.280;2023-04-15T08:48:51;100689.00;;;9.30
25514;BMP180;48128;54.242;10.280;2023-04-15T08:51:18;100682.00;;;9.40
25514;BMP180;48128;54.242;10.280;2023-04-15T08:53:45;100687.00;;;9.50
25514;BMP180;48128;54.242;10.280;2023-04-15T08:56:14;100686.00;;;9.70
25514;BMP180;48128;54.242;10.280;2023-04-15T08:58:43;100696.00;;;9.80
25514;BMP180;48128;54.242;10.280;2023-04-15T09:01:13;100702.00;;;9.90
25514;BMP180;48128;54.242;10.280;2023-04-15T09:03:41;100699.00;;;10.00
25514;BMP180;48128;54.242;10.280;2023-04-15T09:06:08;100708.00;;;10.20
25514;BMP180;48128;54.242;10.280;2023-04-15T09:08:35;100717.00;;;10.30
25514;BMP180;48128;54.242;10.280;2023-04-15T09:11:02;100734.00;;;10.20
25514;BMP180;48128;54.242;10.280;2023-04-15T09:13:29;100717.00;;;10.20
25514;BMP180;48128;54.242;10.280;2023-04-15T09:15:56;100717.00;;;10.30
25514;BMP180;48128;54.242;10.280;2023-04-15T09:18:27;100713.00;;;10.40
25514;BMP180;48128;54.242;10.280;2023-04-15T09:20:55;100715.00;;;10.60
25514;BMP180;48128;54.242;10.280;2023-04-15T09:23:23;100736.00;;;10.70
25514;BMP180;48128;54.242;10.280;2023-04-15T09:25:49;100740.00;;;10.80
25514;BMP180;48128;54.242;10.280;2023-04-15T09:28:23;100738.00;;;10.80
25514;BMP180;48128;54.242;10.280;2023-04-15T09:31:00;100737.00;;;10.80
25514;BMP180;48128;54.242;10.280;2023-04-15T09:33:28;100738.00;;;10.80
25514;BMP180;48128;54.242;10.280;2023-04-15T09:36:13;100739.00;;;10.90
25514;BMP180;48128;54.242;10.280;2023-04-15T09:38:54;100752.00;;;11.00
25514;BMP180;48128;54.242;10.280;2023-04-15T09:41:21;100744.00;;;11.00
25514;BMP180;48128;54.242;10.280;2023-04-15T09:43:48;100745.00;;;11.20
25514;BMP180;48128;54.242;10.280;2023-04-15T09:46:16;100747.00;;;11.30
25514;BMP180;48128;54.242;10.280;2023-04-15T09:48:42;100759.00;;;11.40
25514;BMP180;48128;54.242;10.280;2023-04-15T09:51:09;100746.00;;;11.50
25514;BMP180;48128;54.242;10.280;2023-04-15T09:53:36;100771.00;;;11.50
25514;BMP180;48128;54.242;10.280;2023-04-15T09:56:04;100767.00;;;11.50
25514;BMP180;48128;54.242;10.280;2023-04-15T09:58:34;100756.00;;;11.60
25514;BMP180;48128;54.242;10.280;2023-04-15T10:01:03;100760.00;;;11.80
25514;BMP180;48128;54.242;10.280;2023-04-15T10:03:33;100757.00;;;11.90
25514;BMP180;48128;54.242;10.280;2023-04-15T10:06:03;100765.00;;;12.10
25514;BMP180;48128;54.242;10.280;2023-04-15T10:08:32;100780.00;;;12.10
25514;BMP180;48128;54.242;10.280;2023-04-15T10:11:01;100778.00;;;12.10
25514;BMP180;48128;54.242;10.280;2023-04-15T10:13:31;100769.00;;;12.20
25514;BMP180;48128;54.242;10.280;2023-04-15T10:16:10;100764.00;;;12.30
25514;BMP180;48128;54.242;10.280;2023-04-15T10:18:42;100781.00;;;12.20
25514;BMP180;48128;54.242;10.280;2023-04-15T10:21:11;100774.00;;;12.20
25514;BMP180;48128;54.242;10.280;2023-04-15T10:23:39;100783.00;;;12.50
25514;BMP180;48128;54.242;10.280;2023-04-15T10:26:06;100788.00;;;12.70
25514;BMP180;48128;54.242;10.280;2023-04-15T10:28:33;100816.00;;;12.70
25514;BMP180;48128;54.242;10.280;2023-04-15T10:31:00;100817.00;;;12.70
25514;BMP180;48128;54.242;10.280;2023-04-15T10:33:28;100801.00;;;12.90
25514;BMP180;48128;54.242;10.280;2023-04-15T10:35:55;100810.00;;;13.10
25514;BMP180;48128;54.242;10.280;2023-04-15T10:38:38;100805.00;;;13.20
25514;BMP180;48128;54.242;10.280;2023-04-15T10:41:22;100814.00;;;13.30
25514;BMP180;48128;54.242;10.280;2023-04-15T10:43:53;100826.00;;;13.40
25514;BMP180;48128;54.242;10.280;2023-04-15T10:51:40;100838.00;;;13.40
25514;BMP180;48128;54.242;10.280;2023-04-15T10:54:12;100825.00;;;13.40
25514;BMP180;48128;54.242;10.280;2023-04-15T10:56:43;100833.00;;;13.30
25514;BMP180;48128;54.242;10.280;2023-04-15T10:59:10;100817.00;;;13.20
25514;BMP180;48128;54.242;10.280;2023-04-15T11:02:00;100815.00;;;13.30
25514;BMP180;48128;54.242;10.280;2023-04-15T11:12:40;100850.00;;;13.60
25514;BMP180;48128;54.242;10.280;2023-04-15T11:15:30;100858.00;;;13.60
25514;BMP180;48128;54.242;10.280;2023-04-15T11:18:07;100849.00;;;13.70
25514;BMP180;48128;54.242;10.280;2023-04-15T11:20:35;100850.00;;;13.70
25514;BMP180;48128;54.242;10.280;2023-04-15T11:23:03;100850.00;;;13.90
25514;BMP180;48128;54.242;10.280;2023-04-15T11:25:40;100857.00;;;14.00
25514;BMP180;48128;54.242;10.280;2023-04-15T11:28:07;100872.00;;;13.90
25514;BMP180;48128;54.242;10.280;2023-04-15T11:30:35;100874.00;;;13.90
25514;BMP180;48128;54.242;10.280;2023-04-15T11:33:07;100869.00;;;13.90
25514;BMP180;48128;54.242;10.280;2023-04-15T11:35:35;100871.00;;;13.80
25514;BMP180;48128;54.242;10.280;2023-04-15T11:38:03;100847.00;;;14.00
25514;BMP180;48128;54.242;10.280;2023-04-15T11:40:31;100885.00;;;14.10
25514;BMP180;48128;54.242;10.280;2023-04-15T11:43:09;100872.00;;;14.50
25514;BMP180;48128;54.242;10.280;2023-04-15T11:45:46;100898.00;;;14.50
25514;BMP180;48128;54.242;10.280;2023-04-15T11:48:13;100896.00;;;14.40
25514;BMP180;48128;54.242;10.280;2023-04-15T11:50:40;100884.00;;;14.10
25514;BMP180;48128;54.242;10.280;2023-04-15T11:53:08;100878.00;;;14.00
25514;BMP180;48128;54.242;10.280;2023-04-15T11:55:48;100880.00;;;14.00
25514;BMP180;48128;54.242;10.280;2023-04-15T11:58:16;100879.00;;;13.80
25514;BMP180;48128;54.242;10.280;2023-04-15T12:00:53;100882.00;;;13.60
25514;BMP180;48128;54.242;10.280;2023-04-15T12:03:25;100878.00;;;13.50
25514;BMP180;48128;54.242;10.280;2023-04-15T12:06:24;100887.00;;;13.70
25514;BMP180;48128;54.242;10.280;2023-04-15T12:09:10;100922.00;;;14.00
25514;BMP180;48128;54.242;10.280;2023-04-15T12:11:48;100910.00;;;14.10
25514;BMP180;48128;54.242;10.280;2023-04-15T12:16:47;100922.00;;;13.60
25514;BMP180;48128;54.242;10.280;2023-04-15T12:19:23;100899.00;;;13.70
25514;BMP180;48128;54.242;10.280;2023-04-15T12:21:52;100919.00;;;13.60
25514;BMP180;48128;54.242;10.280;2023-04-15T12:24:25;100911.00;;;13.90
25514;BMP180;48128;54.242;10.280;2023-04-15T12:26:54;100944.00;;;14.00
25514;BMP180;48128;54.242;10.280;2023-04-15T12:29:27;100946.00;;;13.80
25514;BMP180;48128;54.242;10.280;2023-04-15T12:32:03;100920.00;;;13.90
25514;BMP180;48128;54.242;10.280;2023-04-15T12:34:32;100935.00;;;13.70
25514;BMP180;48128;54.242;10.280;2023-04-15T12:37:00;100933.00;;;13.70
25514;BMP180;48128;54.242;10.280;2023-04-15T12:39:30;100917.00;;;14.10
25514;BMP180;48128;54.242;10.280;2023-04-15T12:41:58;100940.00;;;14.30
25514;BMP180;48128;54.242;10.280;2023-04-15T12:44:26;100952.00;;;14.50
25514;BMP180;48128;54.242;10.280;2023-04-15T12:46:53;100963.00;;;14.50
25514;BMP180;48128;54.242;10.280;2023-04-15T12:49:21;100954.00;;;14.50
25514;BMP180;48128;54.242;10.280;2023-04-15T12:51:49;100961.00;;;14.30
25514;BMP180;48128;54.242;10.280;2023-04-15T12:54:17;100947.00;;;14.20
25514;BMP180;48128;54.242;10.280;2023-04-15T12:56:45;100960.00;;;13.90
25514;BMP180;48128;54.242;10.280;2023-04-15T12:59:12;100950.00;;;13.80
25514;BMP180;48128;54.242;10.280;2023-04-15T13:01:39;100956.00;;;13.80
25514;BMP180;48128;54.242;10.280;2023-04-15T13:04:07;100954.00;;;13.70
25514;BMP180;48128;54.242;10.280;2023-04-15T13:06:34;100969.00;;;13.90
25514;BMP180;48128;54.242;10.280;2023-04-15T13:09:02;100976.00;;;13.50
25514;BMP180;48128;54.242;10.280;2023-04-15T13:11:31;100952.00;;;13.60
25514;BMP180;48128;54.242;10.280;2023-04-15T13:14:00;100963.00;;;14.00
25514;BMP180;48128;54.242;10.280;2023-04-15T13:16:28;100971.00;;;14.40
25514;BMP180;48128;54.242;10.280;2023-04-15T13:18:55;100997.00;;;14.50
25514;BMP180;48128;54.242;10.280;2023-04-15T13:21:22;101000.00;;;14.40
25514;BMP180;48128;54.242;10.280;2023-04-15T13:23:49;101002.00;;;14.30
25514;BMP180;48128;54.242;10.280;2023-04-15T13:26:17;101004.00;;;14.10
25514;BMP180;48128;54.242;10.280;2023-04-15T13:28:44;100994.00;;;13.90
25514;BMP180;48128;54.242;10.280;2023-04-15T13:31:11;100997.00;;;13.90
25514;BMP180;48128;54.242;10.280;2023-04-15T13:33:38;101004.00;;;14.30
25514;BMP180;48128;54.242;10.280;2023-04-15T13:36:05;101004.00;;;14.30
25514;BMP180;48128;54.242;10.280;2023-04-15T13:38:32;101009.00;;;14.30
25514;BMP180;48128;54.242;10.280;2023-04-15T13:40:59;101014.00;;;14.20
25514;BMP180;48128;54.242;10.280;2023-04-15T13:43:26;101010.00;;;14.30
25514;BMP180;48128;54.242;10.280;2023-04-15T13:45:53;101015.00;;;14.10
25514;BMP180;48128;54.242;10.280;2023-04-15T13:48:20;101009.00;;;14.00
25514;BMP180;48128;54.242;10.280;2023-04-15T13:50:46;101007.00;;;13.90
25514;BMP180;48128;54.242;10.280;2023-04-15T13:53:14;101031.00;;;13.80
25514;BMP180;48128;54.242;10.280;2023-04-15T13:55:41;101009.00;;;13.50
25514;BMP180;48128;54.242;10.280;2023-04-15T13:58:08;101005.00;;;13.60
25514;BMP180;48128;54.242;10.280;2023-04-15T14:00:36;101009.00;;;13.60
25514;BMP180;48128;54.242;10.280;2023-04-15T14:03:03;101009.00;;;13.70
25514;BMP180;48128;54.242;10.280;2023-04-15T14:05:30;101010.00;;;13.70
25514;BMP180;48128;54.242;10.280;2023-04-15T14:07:58;101022.00;;;13.70
25514;BMP180;48128;54.242;10.280;2023-04-15T14:10:26;101020.00;;;13.60
25514;BMP180;48128;54.242;10.280;2023-04-15T14:12:52;101024.00;;;13.50